Time;durP1;ratioP1;P1;durP2;ratioP2;P2;SDS_P1;SDS_P2;PMS_P1;PMS_P2;Temp;Humidity;BMP_temperature;BMP_pressure;BME280_temperature;BME280_humidity;BME280_pressure;Samples;Min_cycle;Max_cycle;Signal;HPM_P1;HPM_P2
2020/12/06 00:01:34;;;;;;;25.60;18.17;;;6.00;94.50;;;5.53;89.87;96367.91;5040303;28;20682;-76
2020/12/06 00:04:03;;;;;;;26.43;17.50;;;6.00;94.60;;;5.50;89.77;96357.78;5033544;28;20710;-75
2020/12/06 00:06:31;;;;;;;27.07;17.80;;;6.00;94.50;;;5.49;89.78;96363.06;5043261;28;20672;-75
2020/12/06 00:08:59;;;;;;;28.40;18.43;;;6.00;94.60;;;5.48;89.38;96364.84;5034825;28;21073;-76
2020/12/06 00:11:27;;;;;;;26.60;18.60;;;5.90;94.60;;;5.48;89.55;96389.88;5023094;28;20694;-75
2020/12/06 00:13:55;;;;;;;26.07;16.83;;;5.90;94.60;;;5.46;89.44;96408.09;5045628;28;20653;-75
2020/12/06 00:16:23;;;;;;;29.30;18.27;;;5.90;94.50;;;5.42;89.58;96414.41;5044981;28;20695;-76
2020/12/06 00:18:50;;;;;;;31.47;19.70;;;5.90;94.50;;;5.38;89.93;96419.94;5037732;28;20677;-75
2020/12/06 00:21:20;;;;;;;27.20;18.13;;;5.80;94.60;;;5.41;90.35;96419.69;5042646;28;20772;-75
2020/12/06 00:23:49;;;;;;;26.93;17.70;;;5.90;94.80;;;5.44;89.91;96406.53;5039563;28;20725;-76
2020/12/06 00:26:21;;;;;;;23.37;16.23;;;5.90;95.00;;;5.47;89.72;96407.13;5042556;28;20753;-75
2020/12/06 00:28:51;;;;;;;25.57;17.00;;;5.90;94.80;;;5.48;88.93;96400.22;5046293;28;20640;-76
2020/12/06 00:31:20;;;;;;;26.17;17.80;;;5.90;94.60;;;5.44;89.68;96380.69;5036180;28;20672;-75
2020/12/06 00:33:48;;;;;;;25.97;17.00;;;5.80;94.40;;;5.41;90.11;96374.03;5037704;28;20735;-75
2020/12/06 00:36:16;;;;;;;32.20;19.53;;;5.80;94.50;;;5.32;89.18;96366.97;5033406;28;20708;-76
2020/12/06 00:38:44;;;;;;;29.43;19.47;;;5.80;94.80;;;5.30;89.44;96378.34;5036651;28;20629;-75
2020/12/06 00:41:14;;;;;;;27.90;18.00;;;5.70;94.80;;;5.32;89.74;96379.88;5034090;28;21062;-75
2020/12/06 00:43:42;;;;;;;26.50;17.73;;;5.80;95.00;;;5.34;90.06;96380.59;5036015;28;20646;-76
2020/12/06 00:46:11;;;;;;;25.90;17.50;;;5.80;94.90;;;5.36;90.48;96370.13;5048272;28;21024;-76
2020/12/06 00:48:39;;;;;;;25.23;18.13;;;5.80;94.90;;;5.39;90.39;96359.56;5034798;28;20712;-75
2020/12/06 00:51:07;;;;;;;21.17;15.57;;;5.80;94.80;;;5.39;89.85;96359.56;5046032;28;20732;-75
2020/12/06 00:53:42;;;;;;;27.97;18.67;;;5.80;94.80;;;5.41;89.42;96353.34;5046109;28;20625;-75
2020/12/06 00:56:17;;;;;;;25.90;17.63;;;5.90;94.70;;;5.39;89.12;96352.63;5049628;28;20621;-75
2020/12/06 00:58:46;;;;;;;30.07;18.93;;;5.80;94.60;;;5.33;90.34;96335.00;5047817;28;20659;-76
2020/12/06 01:01:14;;;;;;;54.40;39.80;;;5.80;94.70;;;5.33;90.35;96332.41;5042796;28;20752;-75
2020/12/06 01:03:43;;;;;;;31.17;19.40;;;5.80;94.90;;;5.34;90.80;96335.84;5044729;28;20633;-75
2020/12/06 01:06:15;;;;;;;33.30;22.87;;;5.80;95.00;;;5.37;90.04;96330.44;5032411;28;20732;-75
2020/12/06 01:08:43;;;;;;;28.10;19.17;;;5.80;95.00;;;5.32;90.01;96320.44;5039752;28;20638;-75
2020/12/06 01:11:12;;;;;;;31.37;20.10;;;5.80;94.90;;;5.27;89.89;96314.78;5034365;28;21041;-75
2020/12/06 01:13:40;;;;;;;30.00;18.43;;;5.70;94.70;;;5.23;90.63;96318.56;5047876;28;20687;-75
2020/12/06 01:16:07;;;;;;;26.03;17.00;;;5.70;94.90;;;5.25;89.85;96331.38;5037307;28;20662;-74
2020/12/06 01:18:35;;;;;;;26.80;18.07;;;5.70;95.00;;;5.26;90.01;96338.16;5034477;28;21083;-75
2020/12/06 01:21:04;;;;;;;28.57;18.00;;;5.70;95.00;;;5.27;89.85;96329.47;5041114;28;20823;-75
2020/12/06 01:23:32;;;;;;;30.80;19.23;;;5.70;95.00;;;5.26;89.68;96308.00;5044138;28;20737;-75
2020/12/06 01:25:59;;;;;;;30.97;19.10;;;5.70;94.90;;;5.24;90.39;96299.50;5033704;28;20732;-75
2020/12/06 01:28:27;;;;;;;28.23;17.90;;;5.70;94.80;;;5.24;90.23;96299.50;5045649;28;20632;-76
2020/12/06 01:30:55;;;;;;;24.70;17.97;;;5.60;94.70;;;5.19;90.36;96306.00;5044907;28;20637;-74
2020/12/06 01:33:22;;;;;;;30.43;18.40;;;5.60;94.80;;;5.19;90.41;96332.63;5034316;28;20633;-75
2020/12/06 01:35:50;;;;;;;30.63;18.70;;;5.60;94.80;;;5.22;89.87;96347.09;5045923;28;20759;-75
2020/12/06 01:38:18;;;;;;;27.17;18.10;;;5.60;94.90;;;5.21;89.54;96335.09;5033028;28;20993;-75
2020/12/06 01:40:46;;;;;;;28.70;18.33;;;5.60;94.80;;;5.21;90.11;96332.53;5043591;28;20648;-75
2020/12/06 01:43:13;;;;;;;27.80;17.30;;;5.70;94.90;;;5.24;90.43;96330.53;5042922;28;20625;-75
2020/12/06 01:45:41;;;;;;;27.50;18.40;;;5.70;94.90;;;5.24;90.78;96327.94;5049668;28;20711;-74
2020/12/06 01:48:09;;;;;;;28.53;17.73;;;5.70;94.90;;;5.22;89.91;96322.06;5051334;28;20631;-76
2020/12/06 01:50:39;;;;;;;29.87;19.50;;;5.70;94.80;;;5.20;89.88;96336.88;5050785;28;20667;-74
2020/12/06 01:53:08;;;;;;;27.20;18.93;;;5.70;94.70;;;5.18;90.07;96336.16;5047599;28;21024;-75
2020/12/06 01:55:39;;;;;;;24.40;16.30;;;5.70;94.70;;;5.15;89.79;96356.22;5034246;28;20629;-75
2020/12/06 01:58:09;;;;;;;24.53;16.33;;;5.70;94.50;;;5.14;89.94;96357.16;5035745;28;20715;-75
2020/12/06 02:00:38;;;;;;;25.17;16.30;;;5.60;94.50;;;5.13;89.87;96352.94;5034053;28;20688;-75
2020/12/06 02:03:06;;;;;;;26.77;16.93;;;5.60;94.40;;;5.13;89.07;96352.94;5042183;28;20688;-74
2020/12/06 02:05:34;;;;;;;25.93;17.30;;;5.60;94.40;;;5.14;89.11;96360.59;5040615;28;21192;-74
2020/12/06 02:08:03;;;;;;;24.30;15.67;;;5.70;94.50;;;5.17;89.01;96372.44;5041377;28;20630;-74
2020/12/06 02:10:32;;;;;;;24.10;16.73;;;5.70;94.50;;;5.17;90.11;96368.09;5047047;28;20659;-76
2020/12/06 02:13:00;;;;;;;26.93;16.70;;;5.70;94.50;;;5.20;89.55;96357.53;5041946;28;20630;-74
2020/12/06 02:15:28;;;;;;;25.30;16.37;;;5.70;94.50;;;5.20;90.09;96349.78;5040459;28;21096;-75
2020/12/06 02:17:55;;;;;;;26.63;16.90;;;5.70;94.40;;;5.22;89.42;96347.09;5042554;28;20735;-75
2020/12/06 02:20:24;;;;;;;27.10;18.00;;;5.70;94.40;;;5.20;89.77;96342.03;5046033;28;20744;-74
2020/12/06 02:22:51;;;;;;;25.53;16.47;;;5.70;94.30;;;5.18;89.28;96336.16;5031794;28;20671;-76
2020/12/06 02:25:19;;;;;;;26.83;17.77;;;5.70;94.30;;;5.18;89.36;96314.66;5036617;28;20720;-75
2020/12/06 02:27:46;;;;;;;24.33;16.20;;;5.70;94.30;;;5.11;89.25;96313.47;5036523;28;20621;-75
2020/12/06 02:30:14;;;;;;;27.70;17.30;;;5.60;94.10;;;5.11;89.87;96307.50;5034908;28;20637;-74
2020/12/06 02:32:41;;;;;;;24.93;16.70;;;5.60;94.30;;;5.10;89.87;96316.16;5033952;28;20633;-76
2020/12/06 02:35:09;;;;;;;21.97;15.80;;;5.60;94.30;;;5.09;89.81;96317.13;5033698;28;20981;-75
2020/12/06 02:37:38;;;;;;;27.47;17.70;;;5.60;94.40;;;5.11;89.96;96312.66;5032359;28;20633;-75
2020/12/06 02:40:05;;;;;;;25.93;15.97;;;5.60;94.40;;;5.13;89.17;96308.19;5039770;28;20668;-75
2020/12/06 02:42:33;;;;;;;27.23;16.80;;;5.60;94.40;;;5.14;89.17;96308.06;5046412;28;20641;-74
2020/12/06 02:45:01;;;;;;;27.40;17.30;;;5.60;94.40;;;5.13;89.81;96303.88;5046382;28;20740;-75
2020/12/06 02:47:28;;;;;;;24.00;16.40;;;5.60;94.30;;;5.12;89.27;96309.97;5047922;28;20649;-74
2020/12/06 02:49:56;;;;;;;26.30;16.23;;;5.60;94.30;;;5.12;88.93;96307.38;5039798;28;20629;-76
2020/12/06 02:52:23;;;;;;;23.67;15.23;;;5.60;94.20;;;5.12;89.38;96291.88;5053754;28;20624;-75
2020/12/06 02:54:51;;;;;;;27.37;17.47;;;5.60;94.20;;;5.12;89.33;96288.50;5048351;28;21540;-75
2020/12/06 02:57:19;;;;;;;25.67;16.43;;;5.60;94.20;;;5.13;89.47;96284.94;5038688;28;20744;-75
2020/12/06 02:59:46;;;;;;;26.10;16.33;;;5.60;94.20;;;5.10;89.03;96282.59;5045573;28;20646;-74
2020/12/06 03:02:14;;;;;;;28.17;17.23;;;5.60;94.10;;;5.10;88.87;96285.19;5046242;28;20710;-75
2020/12/06 03:04:41;;;;;;;25.30;16.20;;;5.60;94.20;;;5.11;89.04;96292.81;5042289;28;20622;-75
2020/12/06 03:07:09;;;;;;;22.00;15.00;;;5.60;94.50;;;5.09;88.41;96288.72;5038579;28;20628;-75
2020/12/06 03:09:37;;;;;;;27.03;16.20;;;5.60;94.00;;;5.05;88.35;96295.03;5033741;28;21195;-75
2020/12/06 03:12:06;;;;;;;25.00;16.60;;;5.60;93.80;;;5.05;89.22;96288.13;5038060;28;20650;-75
2020/12/06 03:14:33;;;;;;;24.30;15.87;;;5.50;93.80;;;5.06;89.30;96286.38;5042653;28;20735;-75
2020/12/06 03:17:01;;;;;;;26.43;16.77;;;5.60;93.90;;;5.11;88.68;96281.66;5037514;28;20730;-75
2020/12/06 03:19:28;;;;;;;22.40;15.03;;;5.60;94.00;;;5.13;89.00;96286.59;5053830;28;20624;-75
2020/12/06 03:21:57;;;;;;;27.13;17.20;;;5.60;94.00;;;5.13;89.51;96275.44;5042229;28;20649;-74
2020/12/06 03:24:24;;;;;;;25.30;16.67;;;5.60;94.00;;;5.13;88.43;96284.94;5050015;28;21203;-75
2020/12/06 03:26:52;;;;;;;23.70;15.17;;;5.60;94.00;;;5.14;89.62;96301.16;5035777;28;20732;-75
2020/12/06 03:29:21;;;;;;;26.60;16.80;;;5.60;94.10;;;5.15;89.13;96313.13;5043139;28;20720;-75
2020/12/06 03:31:48;;;;;;;27.53;16.90;;;5.60;94.10;;;5.18;88.90;96323.22;5035839;28;21297;-75
2020/12/06 03:34:15;;;;;;;28.07;16.00;;;5.70;94.10;;;5.20;88.41;96323.97;5044008;28;20707;-75
2020/12/06 03:36:43;;;;;;;25.03;16.73;;;5.70;94.10;;;5.20;89.26;96321.38;5053426;28;20736;-74
2020/12/06 03:39:15;;;;;;;28.20;17.03;;;5.70;94.10;;;5.23;89.78;96326.31;5044437;28;20635;-76
2020/12/06 03:41:45;;;;;;;28.30;17.70;;;5.70;94.10;;;5.24;88.90;96340.84;5036032;28;20672;-76
2020/12/06 03:44:12;;;;;;;25.37;17.03;;;5.70;94.10;;;5.26;89.37;96340.75;5044444;28;21269;-75
2020/12/06 03:46:41;;;;;;;26.30;15.77;;;5.70;94.10;;;5.26;88.91;96341.59;5034409;28;20722;-75
2020/12/06 03:49:09;;;;;;;27.73;16.17;;;5.70;94.00;;;5.28;89.29;96337.09;5039788;28;20637;-75
2020/12/06 03:51:36;;;;;;;27.70;17.03;;;5.80;94.00;;;5.25;88.94;96331.38;5039493;28;21251;-75
2020/12/06 03:54:04;;;;;;;26.07;16.33;;;5.70;94.00;;;5.24;89.51;96319.38;5046425;28;20641;-75
2020/12/06 03:56:31;;;;;;;23.10;15.20;;;5.70;94.00;;;5.26;88.39;96314.91;5049353;28;20748;-75
2020/12/06 03:58:59;;;;;;;23.43;15.30;;;5.70;94.00;;;5.26;89.59;96322.66;5060593;28;20630;-75
2020/12/06 04:01:26;;;;;;;23.03;16.33;;;5.80;94.10;;;5.29;89.05;96312.09;5047009;28;21024;-75
2020/12/06 04:03:54;;;;;;;26.30;16.50;;;5.80;94.10;;;5.25;88.17;96280.50;5043926;28;20732;-75
2020/12/06 04:06:22;;;;;;;27.53;17.13;;;5.70;93.70;;;5.19;87.88;96252.56;5050595;28;21034;-75
2020/12/06 04:08:50;;;;;;;25.70;16.87;;;5.60;93.70;;;5.13;88.83;96248.78;5036015;28;20728;-73
2020/12/06 04:11:18;;;;;;;24.10;15.37;;;5.50;93.80;;;5.11;89.23;96292.00;5038865;28;21232;-75
2020/12/06 04:13:46;;;;;;;28.50;16.87;;;5.50;94.10;;;5.12;88.72;96298.81;5039427;28;20616;-74
2020/12/06 04:16:14;;;;;;;26.23;17.47;;;5.50;94.20;;;5.13;89.18;96284.03;5039958;28;20653;-75
2020/12/06 04:18:41;;;;;;;28.70;17.10;;;5.60;94.30;;;5.14;88.85;96280.50;5049364;28;20669;-74
2020/12/06 04:21:12;;;;;;;27.40;16.90;;;5.60;94.30;;;5.15;88.94;96300.22;5040246;28;20643;-75
2020/12/06 04:23:40;;;;;;;25.37;15.57;;;5.60;94.30;;;5.19;89.13;96311.97;5048949;28;20704;-75
2020/12/06 04:26:07;;;;;;;23.57;15.57;;;5.70;94.30;;;5.15;88.52;96305.38;5040638;28;20635;-75
2020/12/06 04:28:34;;;;;;;23.57;16.27;;;5.60;94.10;;;5.16;88.64;96308.81;5058502;28;20630;-75
2020/12/06 04:31:02;;;;;;;27.63;15.90;;;5.60;94.20;;;5.14;89.34;96323.56;5035018;28;20655;-75
2020/12/06 04:33:30;;;;;;;25.27;15.33;;;5.60;94.10;;;5.00;89.68;96321.22;5046874;28;20636;-75
2020/12/06 04:35:57;;;;;;;25.15;16.05;;;5.50;94.10;;;5.00;89.20;96328.16;5037484;28;20853;-75
2020/12/06 04:38:25;;;;;;;25.47;15.37;;;5.40;94.30;;;5.05;89.28;96336.38;5035192;28;20285;-75
2020/12/06 04:40:54;;;;;;;26.50;17.00;;;5.50;94.60;;;5.09;90.26;96325.69;5032760;28;20605;-75
2020/12/06 04:43:21;;;;;;;27.60;17.20;;;5.50;94.60;;;5.13;89.04;96306.44;5042797;28;21310;-74
2020/12/06 04:45:50;;;;;;;26.17;15.90;;;5.50;94.50;;;5.13;89.20;96298.72;5033472;28;20741;-75
2020/12/06 04:48:27;;;;;;;32.23;17.50;;;5.60;94.50;;;5.16;89.45;96276.03;5042713;28;20731;-75
2020/12/06 04:50:56;;;;;;;30.73;18.83;;;5.60;94.60;;;5.19;89.60;96265.47;5032307;28;20729;-75
2020/12/06 04:53:29;;;;;;;29.93;18.63;;;5.60;94.40;;;5.18;89.02;96276.72;5043246;28;20636;-75
2020/12/06 04:56:04;;;;;;;25.87;16.77;;;5.60;94.30;;;5.18;89.53;96297.41;5046610;28;20656;-75
2020/12/06 04:58:33;;;;;;;28.53;18.23;;;5.60;94.40;;;5.18;88.92;96294.81;5033320;28;20613;-75
2020/12/06 05:01:01;;;;;;;25.37;16.33;;;5.60;94.40;;;5.22;88.79;96272.97;5037607;28;20663;-75
2020/12/06 05:03:28;;;;;;;29.77;17.50;;;5.70;94.40;;;5.20;89.27;96272.28;5016555;28;20649;-74
2020/12/06 05:05:56;;;;;;;25.23;16.20;;;5.70;94.40;;;5.27;89.49;96268.28;5033556;28;20622;-75
2020/12/06 05:08:26;;;;;;;30.30;17.10;;;5.70;94.40;;;5.27;88.83;96277.81;5047786;28;20668;-75
2020/12/06 05:10:54;;;;;;;25.97;16.10;;;5.70;94.30;;;5.27;89.09;96304.44;5037635;28;20687;-75
2020/12/06 05:13:22;;;;;;;25.83;16.00;;;5.70;94.40;;;5.27;89.52;96306.22;5038840;28;20729;-74
2020/12/06 05:15:50;;;;;;;25.80;15.67;;;5.70;94.30;;;5.27;89.02;96309.63;5040862;28;20692;-75
2020/12/06 05:18:17;;;;;;;26.43;16.20;;;5.70;94.30;;;5.29;88.80;96310.34;5033619;28;20637;-75
2020/12/06 05:20:46;;;;;;;26.50;15.77;;;5.80;94.30;;;5.28;88.95;96310.47;5035913;28;20625;-75
2020/12/06 05:23:13;;;;;;;28.50;18.23;;;5.80;94.30;;;5.31;89.56;96310.22;5037749;28;21231;-74
2020/12/06 05:25:42;;;;;;;30.47;17.10;;;5.80;94.20;;;5.30;89.53;96311.97;5033317;28;20664;-75
2020/12/06 05:28:12;;;;;;;25.90;16.07;;;5.80;94.20;;;5.32;89.26;96315.28;5034442;28;20638;-76
2020/12/06 05:30:40;;;;;;;30.30;16.57;;;5.80;94.20;;;5.32;89.29;96291.19;5036177;28;20732;-74
2020/12/06 05:33:10;;;;;;;26.13;17.10;;;5.80;94.10;;;5.32;89.04;96315.28;5033257;28;20697;-75
2020/12/06 05:35:41;;;;;;;52.27;29.80;;;5.80;94.10;;;5.34;88.59;96331.47;5034202;28;20632;-75
2020/12/06 05:38:08;;;;;;;29.63;17.93;;;5.80;94.10;;;5.35;88.50;96330.56;5045018;28;20680;-75
2020/12/06 05:40:45;;;;;;;27.43;15.87;;;5.90;94.10;;;5.34;88.31;96323.72;5042135;28;20641;-75
2020/12/06 05:43:13;;;;;;;27.07;16.40;;;5.80;94.00;;;5.34;89.21;96326.31;5045071;28;21045;-74
2020/12/06 05:45:41;;;;;;;29.67;16.97;;;5.80;94.10;;;5.33;89.37;96306.56;5037565;28;20633;-75
2020/12/06 05:48:08;;;;;;;28.50;17.03;;;5.80;94.10;;;5.36;88.46;96298.59;5043993;28;20732;-74
2020/12/06 05:50:36;;;;;;;26.40;15.40;;;5.90;94.10;;;5.35;89.16;96309.88;5034259;28;21065;-74
2020/12/06 05:53:05;;;;;;;28.60;16.10;;;5.80;94.10;;;5.37;88.95;96320.91;5039619;28;20639;-74
2020/12/06 05:55:33;;;;;;;29.77;17.07;;;5.90;94.20;;;5.41;89.37;96321.50;5037213;28;20729;-74
2020/12/06 05:58:02;;;;;;;34.67;18.57;;;5.90;94.10;;;5.43;89.09;96310.09;5043296;28;20684;-74
2020/12/06 06:00:32;;;;;;;31.67;17.57;;;5.90;94.50;;;5.41;88.89;96300.81;5031388;28;20637;-74
2020/12/06 06:03:00;;;;;;;30.10;18.33;;;5.90;94.10;;;5.42;89.47;96294.72;5036800;28;21278;-75
2020/12/06 06:05:29;;;;;;;27.80;16.63;;;5.90;94.10;;;5.44;89.57;96292.81;5041594;28;20665;-73
2020/12/06 06:08:02;;;;;;;30.90;17.23;;;5.90;94.10;;;5.43;89.27;96284.25;5038536;28;20739;-75
2020/12/06 06:10:35;;;;;;;25.77;16.53;;;5.90;94.00;;;5.43;88.81;96289.44;5048308;28;20743;-75
2020/12/06 06:13:03;;;;;;;27.83;16.40;;;5.90;94.00;;;5.45;89.06;96300.47;5041140;28;21014;-75
2020/12/06 06:15:33;;;;;;;32.10;17.40;;;5.90;94.00;;;5.44;88.73;96304.00;5044996;28;20656;-75
2020/12/06 06:18:02;;;;;;;32.10;18.47;;;5.90;94.00;;;5.44;88.83;96308.34;5034493;28;20687;-74
2020/12/06 06:20:30;;;;;;;30.73;17.70;;;5.90;94.00;;;5.41;89.12;96314.59;5031379;28;20642;-74
2020/12/06 06:23:00;;;;;;;33.67;20.10;;;5.90;94.00;;;5.42;88.86;96317.97;5043730;28;20829;-74
2020/12/06 06:25:28;;;;;;;33.07;19.00;;;5.90;94.00;;;5.42;88.96;96334.28;5034782;28;20728;-75
2020/12/06 06:27:58;;;;;;;33.27;18.80;;;5.90;94.00;;;5.45;89.24;96352.16;5035586;28;21322;-74
2020/12/06 06:30:26;;;;;;;35.27;20.13;;;5.90;94.00;;;5.46;89.19;96358.13;5038178;28;20634;-73
2020/12/06 06:32:56;;;;;;;36.33;20.17;;;5.90;94.00;;;5.48;89.27;96358.88;5030870;28;20610;-74
2020/12/06 06:35:23;;;;;;;39.70;21.40;;;6.00;94.00;;;5.46;88.41;96346.06;5043675;28;20652;-75
2020/12/06 06:37:51;;;;;;;39.20;21.30;;;6.00;94.00;;;5.49;88.69;96357.91;5032700;28;20637;-74
2020/12/06 06:40:27;;;;;;;38.73;21.40;;;6.00;94.00;;;5.51;88.70;96354.28;5032865;28;20638;-74
2020/12/06 06:42:55;;;;;;;38.67;21.10;;;6.00;94.40;;;5.52;88.28;96368.84;5032308;28;20661;-73
2020/12/06 06:45:22;;;;;;;35.27;19.70;;;6.00;94.00;;;5.50;89.15;96357.78;5032100;28;20665;-74
2020/12/06 06:47:51;;;;;;;40.47;21.77;;;6.00;93.90;;;5.50;88.43;96365.53;5032896;28;20630;-75
2020/12/06 06:50:19;;;;;;;39.77;21.20;;;6.00;93.90;;;5.51;88.52;96380.13;5030887;28;20631;-73
2020/12/06 06:52:47;;;;;;;40.63;21.07;;;6.00;94.00;;;5.54;88.79;96395.41;5033716;28;20656;-75
2020/12/06 06:55:16;;;;;;;44.80;23.20;;;6.00;94.00;;;5.55;89.24;96386.72;5020210;28;20676;-75
2020/12/06 06:57:45;;;;;;;42.70;21.37;;;6.00;94.00;;;5.54;89.14;96389.41;5032211;28;20717;-75
2020/12/06 07:00:15;;;;;;;41.73;20.90;;;6.00;93.80;;;5.44;89.38;96360.88;5036606;28;20739;-74
2020/12/06 07:02:45;;;;;;;41.20;22.47;;;6.00;93.90;;;5.42;88.94;96369.66;5035456;28;20653;-74
2020/12/06 07:05:22;;;;;;;44.13;22.10;;;5.90;93.90;;;5.34;89.17;96384.94;5040992;28;20638;-74
2020/12/06 07:07:51;;;;;;;61.63;22.50;;;5.80;93.90;;;5.25;89.95;96365.75;5036788;28;21275;-75
2020/12/06 07:10:20;;;;;;;51.20;23.97;;;5.70;94.10;;;5.29;89.00;96374.94;5032066;28;20724;-73
2020/12/06 07:12:49;;;;;;;58.90;23.33;;;5.70;94.30;;;5.19;89.33;96378.31;5032509;28;20665;-74
2020/12/06 07:15:20;;;;;;;47.47;23.70;;;5.70;94.50;;;5.12;90.10;96402.16;5035007;28;20705;-75
2020/12/06 07:17:49;;;;;;;49.40;22.37;;;5.50;94.50;;;5.09;90.50;96412.69;5032263;28;20684;-75
2020/12/06 07:20:19;;;;;;;47.90;23.30;;;5.50;94.80;;;5.10;90.82;96396.25;5034574;28;20721;-75
2020/12/06 07:22:48;;;;;;;47.07;21.77;;;5.50;95.00;;;5.14;90.65;96391.59;5017357;28;20693;-75
2020/12/06 07:25:17;;;;;;;54.77;21.93;;;5.60;95.00;;;5.15;89.96;96400.97;5042646;28;20644;-75
2020/12/06 07:27:46;;;;;;;51.80;23.20;;;5.60;94.90;;;5.17;89.71;96413.75;5035276;28;20677;-74
2020/12/06 07:30:16;;;;;;;53.00;23.87;;;5.60;94.90;;;5.18;90.79;96413.66;5034186;28;20684;-74
2020/12/06 07:32:44;;;;;;;59.90;25.47;;;5.60;94.90;;;5.16;89.75;96410.38;5035924;28;20712;-74
2020/12/06 07:35:14;;;;;;;46.43;23.17;;;5.60;94.90;;;5.17;90.67;96388.78;5033925;28;20628;-73
2020/12/06 07:37:41;;;;;;;50.43;23.93;;;5.60;94.90;;;5.18;89.90;96382.66;5043741;28;20628;-75
2020/12/06 07:40:11;;;;;;;53.10;22.47;;;5.60;95.00;;;5.18;89.93;96387.81;5047901;28;21232;-74
2020/12/06 07:42:39;;;;;;;52.50;23.13;;;5.60;95.00;;;5.18;90.77;96377.47;5053770;28;20664;-75
2020/12/06 07:45:08;;;;;;;53.17;23.20;;;5.60;95.10;;;5.21;90.70;96371.28;5050132;28;20691;-73
2020/12/06 07:47:36;;;;;;;59.67;25.73;;;5.60;95.20;;;5.27;90.91;96373.41;5052223;28;20660;-74
2020/12/06 07:50:06;;;;;;;53.77;24.10;;;5.70;95.20;;;5.30;91.15;96381.75;5040140;28;20642;-73
2020/12/06 07:52:36;;;;;;;63.20;29.40;;;5.80;95.20;;;5.32;90.24;96376.44;5035233;28;20640;-73
2020/12/06 07:55:05;;;;;;;55.17;24.83;;;5.80;95.10;;;5.35;90.68;96379.66;5035378;28;20637;-74
2020/12/06 07:57:47;;;;;;;53.87;24.07;;;5.80;95.00;;;5.39;89.90;96378.47;5034727;28;20641;-74
2020/12/06 08:00:17;;;;;;;105.30;24.37;;;5.80;95.30;;;5.40;89.94;96387.88;5046229;28;20760;-73
2020/12/06 08:02:48;;;;;;;53.53;24.80;;;5.90;94.90;;;5.39;90.53;96378.47;5047452;28;20684;-74
2020/12/06 08:05:20;;;;;;;54.10;22.90;;;5.90;94.80;;;5.42;89.76;96380.81;5034516;28;20740;-73
2020/12/06 08:07:55;;;;;;;64.93;24.87;;;5.90;94.90;;;5.43;90.13;96379.06;5037487;28;20633;-74
2020/12/06 08:10:29;;;;;;;58.53;24.80;;;5.90;94.80;;;5.45;90.43;96378.00;5035470;28;21500;-74
2020/12/06 08:12:58;;;;;;;49.57;22.07;;;5.90;94.80;;;5.48;89.56;96398.44;5033406;28;20951;-74
2020/12/06 08:15:28;;;;;;;68.53;25.00;;;5.90;94.80;;;5.44;89.51;96403.97;5040832;28;20692;-74
2020/12/06 08:17:56;;;;;;;57.47;25.37;;;5.90;94.60;;;5.41;90.06;96405.03;5033820;28;20612;-74
2020/12/06 08:20:26;;;;;;;62.97;26.10;;;5.90;94.70;;;5.40;89.51;96397.41;5032985;28;20667;-73
2020/12/06 08:22:55;;;;;;;55.57;24.83;;;5.90;94.70;;;5.33;90.45;96399.59;5034629;28;21070;-74
2020/12/06 08:25:25;;;;;;;59.97;27.30;;;5.80;94.60;;;5.24;90.07;96391.72;5037960;28;20732;-74
2020/12/06 08:27:54;;;;;;;75.73;28.57;;;5.70;94.70;;;5.26;90.42;96385.50;5044351;28;20727;-73
2020/12/06 08:30:27;;;;;;;68.50;29.17;;;5.70;95.00;;;5.31;89.95;96387.75;5042612;28;20639;-74
2020/12/06 08:32:57;;;;;;;49.87;22.10;;;5.70;95.10;;;5.37;89.83;96390.69;5029342;28;20682;-72
2020/12/06 08:35:39;;;;;;;60.67;24.10;;;5.80;95.10;;;5.41;89.81;96389.53;5037726;28;20664;-72
2020/12/06 08:38:18;;;;;;;63.40;25.40;;;5.90;95.10;;;5.44;89.60;96391.03;5054575;28;20684;-74
2020/12/06 08:41:04;;;;;;;60.07;25.23;;;5.90;94.90;;;5.43;90.19;96397.16;5048532;28;20652;-74
2020/12/06 08:43:48;;;;;;;67.27;25.33;;;5.90;94.80;;;5.39;89.87;96396.56;5044349;28;21224;-74
2020/12/06 08:46:18;;;;;;;62.13;24.60;;;5.80;94.90;;;5.43;90.70;96392.81;5038612;28;20686;-75
2020/12/06 08:48:48;;;;;;;63.70;24.17;;;5.90;95.00;;;5.45;90.32;96388.34;5053772;28;20700;-75
2020/12/06 08:51:36;;;;;;;64.90;25.53;;;5.90;95.00;;;5.47;90.15;96394.19;5045539;28;20677;-74
2020/12/06 08:54:06;;;;;;;71.83;25.90;;;5.90;95.00;;;5.47;90.75;96386.44;5035715;28;20674;-75
2020/12/06 08:56:35;;;;;;;52.83;22.43;;;5.90;95.00;;;5.49;91.28;96396.69;5034070;28;21028;-74
2020/12/06 08:59:08;;;;;;;66.20;24.83;;;5.90;95.10;;;5.52;90.78;96378.34;5032120;28;20641;-72
2020/12/06 09:01:47;;;;;;;74.67;25.60;;;6.00;95.20;;;5.55;90.27;96386.72;5039497;28;20626;-75
2020/12/06 09:04:16;;;;;;;62.07;23.53;;;6.00;95.20;;;5.60;90.98;96389.75;5034113;28;20730;-74
2020/12/06 09:06:44;;;;;;;69.40;25.50;;;6.00;95.20;;;5.63;90.80;96399.88;5043967;28;20625;-73
2020/12/06 09:09:12;;;;;;;62.73;22.77;;;6.10;95.20;;;5.67;90.23;96396.13;5041489;28;20734;-74
2020/12/06 09:11:40;;;;;;;70.13;25.10;;;6.10;95.10;;;5.68;90.19;96393.44;5038753;28;20715;-71
2020/12/06 09:14:08;;;;;;;84.70;23.80;;;6.10;95.00;;;5.70;89.82;96407.03;5042513;28;20636;-70
2020/12/06 09:16:39;;;;;;;69.07;27.37;;;6.10;94.90;;;5.70;90.25;96401.88;5037781;28;20658;-68
2020/12/06 09:19:07;;;;;;;101.17;24.43;;;6.20;95.10;;;5.75;90.39;96378.28;5040595;28;20677;-70
2020/12/06 09:21:35;;;;;;;75.13;24.77;;;6.20;95.00;;;5.78;90.18;96373.69;5033224;28;21219;-70
2020/12/06 09:24:02;;;;;;;67.30;25.33;;;6.20;94.90;;;5.78;90.29;96386.63;5042885;28;20685;-70
2020/12/06 09:26:30;;;;;;;69.43;25.77;;;6.20;95.00;;;5.81;90.66;96394.16;5037422;28;20719;-69
2020/12/06 09:28:57;;;;;;;66.07;24.63;;;6.30;95.20;;;5.86;90.38;96388.63;5044115;28;20633;-69
2020/12/06 09:31:26;;;;;;;84.53;25.83;;;6.30;95.30;;;5.89;90.42;96380.63;5037082;28;20643;-70
2020/12/06 09:33:54;;;;;;;80.67;26.27;;;6.30;95.20;;;5.87;90.77;96364.41;5033417;28;20936;-70
2020/12/06 09:36:23;;;;;;;69.73;24.20;;;6.30;95.10;;;5.89;90.30;96367.69;5045204;28;20685;-69
2020/12/06 09:38:50;;;;;;;82.33;26.77;;;6.30;95.10;;;5.93;90.30;96366.53;5044645;28;20642;-70
2020/12/06 09:41:18;;;;;;;99.80;30.90;;;6.40;95.20;;;5.93;90.30;96366.53;5041187;28;20642;-71
2020/12/06 09:43:46;;;;;;;100.60;24.70;;;6.40;95.10;;;5.99;90.37;96360.88;5039777;28;20647;-71
2020/12/06 09:46:15;;;;;;;64.90;23.37;;;6.40;95.10;;;6.02;90.63;96389.09;5039608;28;20677;-71
2020/12/06 09:48:42;;;;;;;88.90;23.43;;;6.40;95.20;;;6.05;90.42;96402.59;5040364;28;20725;-71
2020/12/06 09:51:11;;;;;;;69.70;22.40;;;6.50;95.20;;;6.06;90.98;96406.00;5041187;28;21029;-71
2020/12/06 09:53:40;;;;;;;59.87;23.07;;;6.50;95.20;;;6.06;90.63;96413.75;5041640;28;20733;-72
2020/12/06 09:56:08;;;;;;;79.70;32.63;;;6.50;95.10;;;6.06;90.63;96426.69;5037391;28;20750;-72
2020/12/06 09:58:36;;;;;;;60.57;21.50;;;6.50;95.20;;;6.07;90.84;96420.59;5036706;28;21231;-71
2020/12/06 10:01:04;;;;;;;54.83;21.63;;;6.50;95.30;;;6.08;90.74;96417.06;5036676;28;21182;-71
2020/12/06 10:03:31;;;;;;;58.77;22.17;;;6.60;95.40;;;6.06;90.58;96406.00;5038214;28;21251;-72
2020/12/06 10:05:59;;;;;;;65.37;20.60;;;6.50;95.30;;;6.10;90.79;96398.72;5043456;28;20638;-71
2020/12/06 10:08:28;;;;;;;72.23;20.67;;;6.50;95.30;;;6.11;90.91;96397.78;5032669;28;20740;-71
2020/12/06 10:10:56;;;;;;;128.67;25.60;;;6.50;95.30;;;6.13;90.69;96395.06;5036770;28;20748;-72
2020/12/06 10:13:24;;;;;;;81.47;23.70;;;6.60;95.40;;;6.10;90.29;96372.84;5040873;28;21078;-72
2020/12/06 10:15:51;;;;;;;115.43;21.00;;;6.50;95.20;;;6.07;90.46;96355.91;5033571;28;20664;-72
2020/12/06 10:18:19;;;;;;;59.13;23.57;;;6.50;95.20;;;6.06;91.26;96362.03;5036979;28;21261;-71
2020/12/06 10:20:46;;;;;;;86.63;23.23;;;6.50;95.40;;;6.10;91.31;96372.84;5034034;28;20640;-72
2020/12/06 10:23:14;;;;;;;77.73;24.03;;;6.50;95.50;;;6.09;90.26;96380.75;5033801;28;20747;-71
2020/12/06 10:25:41;;;;;;;87.93;29.50;;;6.50;95.50;;;6.08;91.26;96380.84;5036579;28;20634;-72
2020/12/06 10:28:11;;;;;;;73.97;27.60;;;6.50;95.60;;;6.09;91.53;96378.16;5048024;28;20629;-71